Serene Sea — D5HI4 — position and weather

sailwx.info

Track history (hours):
 
Tides and Currents Weather Stations Pressure Air Temp Water Temp Dewpoint Dewpoint Depression Visibility Wind Speed Wind Dir Waves Ship Positions

Serene Sea

Last reported at 2018-Jul-15 00:00 UTC. Time now 2018-Jul-21 15:29 UTC.
Position N 46°42' E 176°12'.

Length 229 m; draft 12.3 m.

Type: Tanker. MMSI: 636016696.

Wind from 270 at 21 knots

Barometer 1025.0 mb
Air temperature 10.0 ° C
Visibility: greater than 5.4 NM
Water temperature 9.0 ° C

Date/timePositionNaut miles runAvg speedWind from/ knotsBaromVisibWave heightAir tempDewpointWater temp
2018-Jul-15 00:00N 46°42' E 176°12'29111.6 270 / 211025.0 5.4 10.0 9.0
2018-Jul-13 23:00N 47°36' W 176°48'   250 / 331018.0 5.4 10.0 9.0
2018-Jul-09 20:00N 49°48' W 151°00'   250 / 271012.9 5.4 12.0 12.0
2018-Jul-06 12:07N 48°36' W 126°23'312.7
2018-Jul-06 11:53N 48°36' W 126°18'512.6
2018-Jul-06 11:30N 48°36' W 126°11'612.5
2018-Jul-06 11:00N 48°35' W 126°02'613.0
2018-Jul-06 10:30N 48°34' W 125°52'713.3
2018-Jul-06 10:00N 48°33' W 125°42'713.5
2018-Jul-06 09:30N 48°32' W 125°32'713.3
2018-Jul-06 09:00N 48°31' W 125°22'713.0
2018-Jul-06 08:30N 48°31' W 125°12'713.4
2018-Jul-06 07:59N 48°31' W 125°02'714.1
2018-Jul-06 07:30N 48°31' W 124°51'713.8
2018-Jul-06 07:00N 48°30' W 124°41'714.0
2018-Jul-06 06:30N 48°27' W 124°32'713.5
2018-Jul-06 06:00N 48°25' W 124°22'612.7
2018-Jul-06 05:30N 48°22' W 124°13'612.2
2018-Jul-06 05:00N 48°20' W 124°05'611.7
2018-Jul-06 04:30N 48°18' W 123°57'711.9
2018-Jul-06 03:55N 48°16' W 123°46'511.3
2018-Jul-06 03:27N 48°16' W 123°39'14 8.5
2018-Jul-06 01:51N 48°23' W 123°22'3 8.6
2018-Jul-06 01:30N 48°24' W 123°17'4 8.6
2018-Jul-06 01:00N 48°26' W 123°12'510.7
2018-Jul-06 00:30N 48°31' W 123°13'611.5
2018-Jul-06 00:00N 48°37' W 123°14'510.1
2018-Jul-05 23:30N 48°42' W 123°15'510.3
2018-Jul-05 23:00N 48°44' W 123°09'510.3
2018-Jul-05 22:30N 48°47' W 123°02'5 9.7
2018-Jul-05 21:59N 48°51' W 123°05'613.1
2018-Jul-05 21:30N 48°56' W 123°12'713.1
2018-Jul-05 21:00N 49°00' W 123°19'612.0
2018-Jul-05 20:30N 49°05' W 123°24'713.3
2018-Jul-05 20:00N 49°12' W 123°22'612.2
2018-Jul-05 19:29N 49°18' W 123°18'4 8.0
2018-Jul-05 18:59N 49°19' W 123°13'3 6.7
2018-Jul-05 18:30N 49°19' W 123°08'3 6.0
2018-Jul-05 18:00N 49°18' W 123°03'3 5.1
2018-Jul-05 17:30N 49°18' W 122°59'1 1.5
2018-Jul-05 17:00N 49°18' W 122°58'1 2.8
2018-Jul-05 16:29N 49°18' W 122°56'0 0.0
2018-Jul-05 15:58N 49°18' W 122°56'0 0.0
2018-Jul-05 15:28N 49°18' W 122°56'0 0.1
2018-Jul-05 14:58N 49°18' W 122°56'0 0.1
2018-Jul-05 14:28N 49°18' W 122°56'0 0.1
2018-Jul-05 13:28N 49°18' W 122°56'0 0.0
2018-Jul-05 12:58N 49°18' W 122°56'0 0.0
2018-Jul-05 12:28N 49°18' W 122°56'0 0.1
2018-Jul-05 11:58N 49°18' W 122°56'0 0.0
2018-Jul-05 11:28N 49°18' W 122°56'0 0.0
2018-Jul-05 10:58N 49°18' W 122°56'0 0.0
2018-Jul-05 10:19N 49°18' W 122°56'0 0.0
2018-Jul-05 09:58N 49°18' W 122°56'0 0.0
2018-Jul-05 09:28N 49°18' W 122°56'0 0.0
2018-Jul-05 08:58N 49°18' W 122°56'0 0.0
2018-Jul-05 08:28N 49°18' W 122°56'0 0.0
2018-Jul-05 07:58N 49°18' W 122°56'0 0.0
2018-Jul-05 07:28N 49°18' W 122°56'0 0.0
2018-Jul-05 06:58N 49°18' W 122°56'0 0.2
2018-Jul-05 06:28N 49°18' W 122°56'0 0.1
2018-Jul-05 05:58N 49°18' W 122°56'0 0.2
2018-Jul-05 05:28N 49°18' W 122°56'0 0.3
2018-Jul-05 04:58N 49°18' W 122°56'0 0.3
2018-Jul-05 04:28N 49°18' W 122°56'0 0.1
2018-Jul-05 03:58N 49°18' W 122°56'0 0.0
2018-Jul-05 03:13N 49°18' W 122°56'0 0.1
2018-Jul-05 02:43N 49°18' W 122°56'0 0.0
2018-Jul-05 02:25N 49°18' W 122°56'0 0.1
2018-Jul-05 01:37N 49°18' W 122°56'0 0.0
2018-Jul-05 01:25N 49°18' W 122°56'0 0.0
2018-Jul-05 00:13N 49°18' W 122°56'  
Track history (hours):
 
Tides and Currents Weather Stations Pressure Air Temp Water Temp Dewpoint Dewpoint Depression Visibility Wind Speed Wind Dir Waves Ship Positions

Serene Sea

Last reported at 2018-Jul-15 00:00 UTC. Time now 2018-Jul-21 15:29 UTC.
Position N 46°42' E 176°12'.

Length 229 m; draft 12.3 m.

Type: Tanker. MMSI: 636016696.

Wind from 270 at 21 knots

Barometer 1025.0 mb
Air temperature 10.0 ° C
Visibility: greater than 5.4 NM
Water temperature 9.0 ° C

Date/timePositionNaut miles runAvg speedWind from/ knotsBaromVisibWave heightAir tempDewpointWater temp
2018-Jul-15 00:00N 46°42' E 176°12'29111.6 270 / 211025.0 5.4 10.0 9.0
2018-Jul-13 23:00N 47°36' W 176°48'   250 / 331018.0 5.4 10.0 9.0
2018-Jul-09 20:00N 49°48' W 151°00'   250 / 271012.9 5.4 12.0 12.0
2018-Jul-06 12:07N 48°36' W 126°23'312.7
2018-Jul-06 11:53N 48°36' W 126°18'512.6
2018-Jul-06 11:30N 48°36' W 126°11'612.5
2018-Jul-06 11:00N 48°35' W 126°02'613.0
2018-Jul-06 10:30N 48°34' W 125°52'713.3
2018-Jul-06 10:00N 48°33' W 125°42'713.5
2018-Jul-06 09:30N 48°32' W 125°32'713.3
2018-Jul-06 09:00N 48°31' W 125°22'713.0
2018-Jul-06 08:30N 48°31' W 125°12'713.4
2018-Jul-06 07:59N 48°31' W 125°02'714.1
2018-Jul-06 07:30N 48°31' W 124°51'713.8
2018-Jul-06 07:00N 48°30' W 124°41'714.0
2018-Jul-06 06:30N 48°27' W 124°32'713.5
2018-Jul-06 06:00N 48°25' W 124°22'612.7
2018-Jul-06 05:30N 48°22' W 124°13'612.2
2018-Jul-06 05:00N 48°20' W 124°05'611.7
2018-Jul-06 04:30N 48°18' W 123°57'711.9
2018-Jul-06 03:55N 48°16' W 123°46'511.3
2018-Jul-06 03:27N 48°16' W 123°39'14 8.5
2018-Jul-06 01:51N 48°23' W 123°22'3 8.6
2018-Jul-06 01:30N 48°24' W 123°17'4 8.6
2018-Jul-06 01:00N 48°26' W 123°12'510.7
2018-Jul-06 00:30N 48°31' W 123°13'611.5
2018-Jul-06 00:00N 48°37' W 123°14'510.1
2018-Jul-05 23:30N 48°42' W 123°15'510.3
2018-Jul-05 23:00N 48°44' W 123°09'510.3
2018-Jul-05 22:30N 48°47' W 123°02'5 9.7
2018-Jul-05 21:59N 48°51' W 123°05'613.1
2018-Jul-05 21:30N 48°56' W 123°12'713.1
2018-Jul-05 21:00N 49°00' W 123°19'612.0
2018-Jul-05 20:30N 49°05' W 123°24'713.3
2018-Jul-05 20:00N 49°12' W 123°22'612.2
2018-Jul-05 19:29N 49°18' W 123°18'4 8.0
2018-Jul-05 18:59N 49°19' W 123°13'3 6.7
2018-Jul-05 18:30N 49°19' W 123°08'3 6.0
2018-Jul-05 18:00N 49°18' W 123°03'3 5.1
2018-Jul-05 17:30N 49°18' W 122°59'1 1.5
2018-Jul-05 17:00N 49°18' W 122°58'1 2.8
2018-Jul-05 16:29N 49°18' W 122°56'0 0.0
2018-Jul-05 15:58N 49°18' W 122°56'0 0.0
2018-Jul-05 15:28N 49°18' W 122°56'0 0.1
2018-Jul-05 14:58N 49°18' W 122°56'0 0.1
2018-Jul-05 14:28N 49°18' W 122°56'0 0.1
2018-Jul-05 13:28N 49°18' W 122°56'0 0.0
2018-Jul-05 12:58N 49°18' W 122°56'0 0.0
2018-Jul-05 12:28N 49°18' W 122°56'0 0.1
2018-Jul-05 11:58N 49°18' W 122°56'0 0.0
2018-Jul-05 11:28N 49°18' W 122°56'0 0.0
2018-Jul-05 10:58N 49°18' W 122°56'0 0.0
2018-Jul-05 10:19N 49°18' W 122°56'0 0.0
2018-Jul-05 09:58N 49°18' W 122°56'0 0.0
2018-Jul-05 09:28N 49°18' W 122°56'0 0.0
2018-Jul-05 08:58N 49°18' W 122°56'0 0.0
2018-Jul-05 08:28N 49°18' W 122°56'0 0.0
2018-Jul-05 07:58N 49°18' W 122°56'0 0.0
2018-Jul-05 07:28N 49°18' W 122°56'0 0.0
2018-Jul-05 06:58N 49°18' W 122°56'0 0.2
2018-Jul-05 06:28N 49°18' W 122°56'0 0.1
2018-Jul-05 05:58N 49°18' W 122°56'0 0.2
2018-Jul-05 05:28N 49°18' W 122°56'0 0.3
2018-Jul-05 04:58N 49°18' W 122°56'0 0.3
2018-Jul-05 04:28N 49°18' W 122°56'0 0.1
2018-Jul-05 03:58N 49°18' W 122°56'0 0.0
2018-Jul-05 03:13N 49°18' W 122°56'0 0.1
2018-Jul-05 02:43N 49°18' W 122°56'0 0.0
2018-Jul-05 02:25N 49°18' W 122°56'0 0.1
2018-Jul-05 01:37N 49°18' W 122°56'0 0.0
2018-Jul-05 01:25N 49°18' W 122°56'0 0.0
2018-Jul-05 00:13N 49°18' W 122°56'  

Dump ship's entire track history